Time;durP1;ratioP1;P1;durP2;ratioP2;P2;SDS_P1;SDS_P2;PMS_P1;PMS_P2;Temp;Humidity;BMP_temperature;BMP_pressure;BME280_temperature;BME280_humidity;BME280_pressure;Samples;Min_cycle;Max_cycle;Signal;HPM_P1;HPM_P2
2021/11/30 00:01:06;;;;;;;8.82;2.05;;;;;;;4.77;68.37;101063.25;5043964;28;20052;-68
2021/11/30 00:03:33;;;;;;;5.90;3.05;;;;;;;4.75;69.00;101062.38;5044309;28;20357;-67
2021/11/30 00:05:58;;;;;;;7.32;1.50;;;;;;;4.70;69.14;101050.25;5042396;28;20162;-68
2021/11/30 00:08:28;;;;;;;12.85;1.83;;;;;;;4.65;69.95;101055.50;5044300;28;20029;-66
2021/11/30 00:10:54;;;;;;;;;;;;;;;4.63;71.13;101036.34;5044007;28;20029;-66
2021/11/30 00:13:21;;;;;;;8.52;1.35;;;;;;;4.58;71.48;101036.41;5044391;28;20007;-65
2021/11/30 00:15:47;;;;;;;11.05;1.95;;;;;;;4.49;72.54;101042.50;5041034;28;20063;-68
2021/11/30 00:18:14;;;;;;;2.03;1.17;;;;;;;4.54;71.93;101025.09;5044870;28;20079;-68
2021/11/30 00:20:40;;;;;;;5.38;1.35;;;;;;;4.51;73.08;101019.91;5042551;28;20032;-69
2021/11/30 00:23:06;;;;;;;6.03;1.67;;;;;;;4.41;73.71;101020.81;5044265;28;20029;-67
2021/11/30 00:25:32;;;;;;;3.90;1.30;;;;;;;4.39;74.44;101009.50;5043597;28;20033;-68
2021/11/30 00:27:57;;;;;;;7.30;1.50;;;;;;;4.38;74.35;101002.56;5043179;28;20067;-69
2021/11/30 00:30:23;;;;;;;6.57;2.17;;;;;;;4.37;75.03;100993.03;5042585;28;20033;-68
2021/11/30 00:32:49;;;;;;;10.68;2.13;;;;;;;4.37;75.39;100991.25;5043440;28;20029;-68
2021/11/30 00:35:15;;;;;;;6.75;2.00;;;;;;;4.38;75.95;100984.31;5044027;28;20501;-68
2021/11/30 00:37:40;;;;;;;7.00;1.58;;;;;;;4.39;76.46;100983.44;5042446;28;20032;-68
2021/11/30 00:40:06;;;;;;;6.05;2.10;;;;;;;4.26;78.10;100972.19;5043646;28;20047;-67
2021/11/30 00:42:31;;;;;;;9.82;2.05;;;;;;;4.32;78.38;100977.38;5046882;28;20124;-67
2021/11/30 00:45:00;;;;;;;9.13;2.28;;;;;;;4.24;79.35;100967.00;5047940;28;20117;-67
2021/11/30 00:47:29;;;;;;;7.30;1.90;;;;;;;4.22;79.99;100952.22;5046921;28;20082;-68
2021/11/30 00:49:55;;;;;;;10.88;2.58;;;;;;;4.19;81.39;100954.84;5047694;28;20059;-68
2021/11/30 00:52:20;;;;;;;14.30;2.70;;;;;;;4.17;81.71;100957.47;5046081;28;20052;-68
2021/11/30 00:54:46;;;;;;;12.90;2.42;;;;;;;4.17;82.27;100949.66;5047167;28;20163;-67
2021/11/30 00:57:13;;;;;;;12.50;2.70;;;;;;;4.17;82.76;100953.13;5047561;28;20382;-67
2021/11/30 00:59:38;;;;;;;10.77;2.53;;;;;;;4.15;83.20;100946.16;5047543;28;20048;-67
2021/11/30 01:02:04;;;;;;;7.20;2.75;;;;;;;4.14;83.84;100941.84;5046538;28;20364;-66
2021/11/30 01:04:29;;;;;;;7.25;2.90;;;;;;;4.19;84.19;100937.47;5047957;28;20666;-68
2021/11/30 01:06:54;;;;;;;9.80;2.38;;;;;;;4.19;84.86;100934.00;5045862;28;20514;-69
2021/11/30 01:09:20;;;;;;;11.80;2.88;;;;;;;4.21;84.92;100917.44;5046481;28;20029;-66
2021/11/30 01:11:45;;;;;;;10.25;2.83;;;;;;;4.22;85.21;100915.72;5046178;28;20498;-67
2021/11/30 01:14:11;;;;;;;14.15;3.42;;;;;;;4.23;85.97;100931.34;5048105;28;20044;-66
2021/11/30 01:16:36;;;;;;;10.68;2.95;;;;;;;4.21;85.75;100921.81;5046736;28;20036;-65
2021/11/30 01:19:05;;;;;;;7.47;3.35;;;;;;;4.25;86.04;100913.09;5045496;28;20666;-65
2021/11/30 01:21:33;;;;;;;11.57;3.50;;;;;;;4.27;86.46;100913.94;5045970;28;20021;-67
2021/11/30 01:23:58;;;;;;;9.25;3.28;;;;;;;4.33;86.72;100911.28;5046560;28;20036;-67
2021/11/30 01:26:23;;;;;;;9.90;3.70;;;;;;;4.45;86.80;100902.50;5047522;28;20446;-67
2021/11/30 01:28:49;;;;;;;10.88;3.88;;;;;;;4.52;86.65;100914.63;5046482;28;20102;-67
2021/11/30 01:31:14;;;;;;;10.20;3.28;;;;;;;4.57;86.97;100908.53;5047456;28;20079;-69
2021/11/30 01:33:40;;;;;;;9.50;4.13;;;;;;;4.67;86.87;100895.38;5046598;28;20133;-68
2021/11/30 01:36:05;;;;;;;8.60;3.42;;;;;;;4.76;86.72;100897.03;5044657;28;20029;-69
2021/11/30 01:38:32;;;;;;;7.25;3.13;;;;;;;4.79;86.84;100896.16;5043889;28;20112;-67
2021/11/30 01:41:00;;;;;;;8.07;3.28;;;;;;;4.85;86.84;100901.31;5047257;28;20532;-68
2021/11/30 01:43:29;;;;;;;9.60;3.55;;;;;;;4.91;87.19;100887.34;5046040;28;20021;-69
2021/11/30 01:46:08;;;;;;;4.30;2.93;;;;;;;4.94;87.13;100889.94;5026140;28;20040;-69
2021/11/30 01:51:18;;;;;;;5.45;3.00;;;;;;;4.99;87.22;100872.47;5026854;28;20056;-70
2021/11/30 01:53:44;;;;;;;5.88;3.20;;;;;;;5.06;87.37;100868.91;5023617;28;20033;-68
2021/11/30 01:56:09;;;;;;;4.85;2.88;;;;;;;5.10;87.19;100861.03;5042513;28;20029;-70
2021/11/30 01:58:35;;;;;;;6.90;3.15;;;;;;;5.13;87.60;100863.63;5026066;28;20037;-68
2021/11/30 02:01:00;;;;;;;4.20;2.80;;;;;;;5.18;87.38;100867.06;5043190;28;20514;-70
2021/11/30 02:03:25;;;;;;;7.45;3.38;;;;;;;5.23;87.42;100860.00;5045950;28;20045;-73
2021/11/30 02:05:51;;;;;;;6.53;2.78;;;;;;;5.26;87.77;100864.34;5044799;28;20111;-71
2021/11/30 02:08:16;;;;;;;11.60;3.55;;;;;;;5.29;87.72;100862.56;5046336;28;20037;-72
2021/11/30 02:10:42;;;;;;;4.93;3.58;;;;;;;5.33;87.96;100858.19;5045983;28;20032;-72
2021/11/30 02:13:07;;;;;;;5.63;4.15;;;;;;;5.41;87.97;100863.28;5046018;28;20039;-72
2021/11/30 02:15:37;;;;;;;7.90;4.43;;;;;;;5.44;88.18;100855.41;5045351;28;20120;-69
2021/11/30 02:18:05;;;;;;;8.13;4.35;;;;;;;5.55;88.32;100857.91;5046015;28;20048;-72
2021/11/30 02:20:31;;;;;;;11.43;4.35;;;;;;;5.69;88.88;100852.50;5038932;28;20033;-72
2021/11/30 02:22:58;;;;;;;8.90;4.00;;;;;;;5.85;88.90;100858.38;5026362;28;20090;-71
2021/11/30 02:25:24;;;;;;;7.47;3.50;;;;;;;5.94;88.77;100857.41;5027098;28;20132;-74
2021/11/30 02:27:50;;;;;;;10.27;3.60;;;;;;;6.09;88.62;100842.38;5045398;28;20438;-71
2021/11/30 02:30:16;;;;;;;8.43;3.60;;;;;;;6.18;88.13;100835.25;5042071;28;20391;-69
2021/11/30 02:32:41;;;;;;;6.93;3.30;;;;;;;6.24;87.96;100836.94;5045031;28;20021;-73
2021/11/30 02:35:07;;;;;;;7.97;3.13;;;;;;;6.28;87.78;100827.25;5026755;28;20428;-72
2021/11/30 02:37:38;;;;;;;5.78;2.55;;;;;;;6.34;87.71;100832.41;5045180;28;20033;-71
2021/11/30 02:40:05;;;;;;;6.97;2.67;;;;;;;6.39;87.28;100838.44;5045239;28;20454;-71
2021/11/30 02:42:31;;;;;;;7.30;2.35;;;;;;;6.38;87.51;100828.00;5023116;28;20033;-75
2021/11/30 02:44:56;;;;;;;6.43;2.55;;;;;;;6.40;87.49;100819.22;5025844;28;20081;-74
2021/11/30 02:47:24;;;;;;;8.30;2.45;;;;;;;6.42;87.48;100811.34;5042305;28;20472;-70
2021/11/30 02:49:49;;;;;;;7.55;3.53;;;;;;;6.44;87.37;100820.00;5046892;28;20029;-73
2021/11/30 02:52:18;;;;;;;10.15;2.30;;;;;;;6.50;87.19;100819.91;5046771;28;20047;-71
2021/11/30 02:54:46;;;;;;;6.93;2.28;;;;;;;6.55;86.86;100812.84;5048651;28;20132;-72
2021/11/30 02:57:13;;;;;;;7.45;2.28;;;;;;;6.61;86.33;100818.84;5047666;28;20108;-73
2021/11/30 02:59:42;;;;;;;5.15;2.25;;;;;;;6.66;86.12;100814.41;5046784;28;20025;-69
2021/11/30 03:02:14;;;;;;;10.70;3.22;;;;;;;6.64;86.45;100801.34;5045189;28;20045;-71
2021/11/30 03:04:41;;;;;;;8.15;2.67;;;;;;;6.65;86.46;100805.69;5046416;28;20021;-71
2021/11/30 03:07:12;;;;;;;6.13;2.70;;;;;;;6.65;86.64;100791.75;5043938;28;20124;-70
2021/11/30 03:09:39;;;;;;;8.45;2.40;;;;;;;6.68;86.39;100783.81;5046282;28;20120;-72
2021/11/30 03:12:05;;;;;;;8.02;3.58;;;;;;;6.67;86.45;100787.34;5045730;28;20029;-70
2021/11/30 03:14:31;;;;;;;9.77;2.83;;;;;;;6.70;86.64;100779.41;5045840;28;20033;-73
2021/11/30 03:16:57;;;;;;;7.03;2.15;;;;;;;6.69;86.72;100768.06;5045741;28;20021;-72
2021/11/30 03:19:22;;;;;;;8.65;2.60;;;;;;;6.69;87.08;100762.00;5045888;28;20470;-73
2021/11/30 03:21:47;;;;;;;5.30;2.40;;;;;;;6.70;87.04;100780.28;5044869;28;20044;-73
2021/11/30 03:24:14;;;;;;;9.48;2.33;;;;;;;6.71;87.13;100770.66;5046062;28;20036;-71
2021/11/30 03:26:39;;;;;;;7.30;2.03;;;;;;;6.74;87.33;100775.84;5046123;28;20040;-71
2021/11/30 03:29:05;;;;;;;6.18;2.53;;;;;;;6.76;87.17;100770.59;5045147;28;20041;-72
2021/11/30 03:34:14;;;;;;;3.38;1.90;;;;;;;6.79;87.33;100758.31;5045341;28;20150;-71
2021/11/30 03:36:41;;;;;;;6.10;1.80;;;;;;;6.83;87.20;100790.53;5045210;28;20025;-71
2021/11/30 03:39:13;;;;;;;5.18;1.70;;;;;;;6.87;86.99;100755.53;5045292;28;20107;-71
2021/11/30 03:41:39;;;;;;;10.00;2.05;;;;;;;6.88;87.27;100754.63;5045888;28;20048;-71
2021/11/30 03:44:06;;;;;;;4.57;1.40;;;;;;;6.93;87.38;100758.00;5045300;28;20098;-70
2021/11/30 03:46:31;;;;;;;5.85;1.70;;;;;;;6.95;87.04;100757.97;5045377;28;20021;-71
2021/11/30 03:48:57;;;;;;;6.13;2.10;;;;;;;6.95;86.96;100760.59;5043794;28;20036;-71
2021/11/30 03:51:23;;;;;;;3.67;1.88;;;;;;;6.98;86.83;100749.22;5044510;28;20043;-71
2021/11/30 03:53:48;;;;;;;6.18;2.95;;;;;;;7.04;86.69;100770.03;5045187;28;20463;-68
2021/11/30 03:56:14;;;;;;;8.45;3.00;;;;;;;7.04;86.75;100749.06;5045614;28;20067;-69
2021/11/30 03:58:39;;;;;;;8.43;3.15;;;;;;;7.02;87.07;100743.88;5045624;28;20112;-70
2021/11/30 04:01:06;;;;;;;7.55;3.42;;;;;;;7.04;87.04;100747.31;5045263;28;20053;-71
2021/11/30 04:03:34;;;;;;;9.23;3.05;;;;;;;7.07;86.99;100755.13;5043869;28;20056;-71
2021/11/30 04:05:59;;;;;;;7.25;3.40;;;;;;;7.06;87.23;100750.78;5044548;28;20098;-72
2021/11/30 04:08:25;;;;;;;14.05;3.53;;;;;;;7.05;87.38;100751.66;5045208;28;20037;-69
2021/11/30 04:10:50;;;;;;;8.88;4.18;;;;;;;7.11;87.47;100760.31;5045252;28;20443;-70
2021/11/30 04:13:16;;;;;;;13.60;4.40;;;;;;;7.10;87.37;100750.72;5045440;28;20566;-72
2021/11/30 04:15:41;;;;;;;13.48;4.88;;;;;;;7.08;87.61;100767.31;5045787;28;20086;-74
2021/11/30 04:18:07;;;;;;;16.27;5.43;;;;;;;7.13;87.50;100755.91;5049342;28;20109;-69
2021/11/30 04:20:32;;;;;;;11.70;4.85;;;;;;;7.15;87.59;100743.63;5048743;28;20032;-72
2021/11/30 04:22:58;;;;;;;14.23;4.63;;;;;;;7.18;87.65;100740.94;5049201;28;20029;-70
2021/11/30 04:25:24;;;;;;;15.60;4.93;;;;;;;7.22;87.73;100747.81;5049319;28;20033;-71
2021/11/30 04:27:49;;;;;;;11.43;5.00;;;;;;;7.19;87.47;100733.03;5049011;28;20116;-70
2021/11/30 04:30:15;;;;;;;13.75;4.90;;;;;;;7.24;87.57;100735.56;5049231;28;20028;-70
2021/11/30 04:32:40;;;;;;;11.90;5.10;;;;;;;7.27;87.48;100734.63;5048201;28;20498;-70
2021/11/30 04:35:08;;;;;;;16.83;5.53;;;;;;;7.25;87.68;100725.97;5048152;28;20028;-69
2021/11/30 04:37:33;;;;;;;13.68;6.03;;;;;;;7.27;87.51;100764.34;5049133;28;20797;-72
2021/11/30 04:39:58;;;;;;;17.58;6.15;;;;;;;7.27;87.48;100725.00;5047148;28;20033;-69
2021/11/30 04:42:27;;;;;;;18.88;5.55;;;;;;;7.32;87.56;100732.78;5049077;28;20028;-72
2021/11/30 04:45:13;;;;;;;19.05;6.03;;;;;;;7.33;87.70;100744.97;5048650;28;20029;-71
2021/11/30 04:47:41;;;;;;;19.15;6.25;;;;;;;7.35;87.51;100729.22;5048939;28;20029;-69
2021/11/30 04:50:14;;;;;;;12.57;5.25;;;;;;;7.39;87.69;100720.38;5046540;28;20463;-73
2021/11/30 04:52:41;;;;;;;10.07;4.75;;;;;;;7.41;87.61;100721.22;5049457;28;20037;-70
2021/11/30 04:55:07;;;;;;;11.90;4.65;;;;;;;7.44;87.53;100719.38;5046959;28;20036;-70
2021/11/30 04:57:33;;;;;;;14.15;5.43;;;;;;;7.45;87.28;100694.91;5048655;28;20021;-69
2021/11/30 04:59:58;;;;;;;16.73;4.85;;;;;;;7.45;87.33;100708.03;5048421;28;20028;-68
2021/11/30 05:02:23;;;;;;;10.70;5.43;;;;;;;7.50;87.36;100712.28;5048688;28;20041;-70
2021/11/30 05:04:49;;;;;;;11.23;4.95;;;;;;;7.52;87.35;100713.09;5047749;28;20137;-68
2021/11/30 05:07:15;;;;;;;10.70;4.50;;;;;;;7.52;87.36;100736.69;5048613;28;20090;-67
2021/11/30 05:09:41;;;;;;;16.80;4.13;;;;;;;7.56;87.06;100697.25;5048802;28;20033;-73
2021/11/30 05:12:07;;;;;;;18.67;5.30;;;;;;;7.57;86.79;100740.97;5048032;28;20040;-69
2021/11/30 05:14:32;;;;;;;13.40;4.43;;;;;;;7.59;86.86;100706.84;5047945;28;20033;-70
2021/11/30 05:16:57;;;;;;;11.43;4.60;;;;;;;7.58;86.92;100695.47;5048212;28;20028;-68
2021/11/30 05:19:23;;;;;;;12.48;5.28;;;;;;;7.61;86.97;100693.69;5048283;28;20025;-71
2021/11/30 05:21:48;;;;;;;19.63;5.22;;;;;;;7.61;86.96;100702.41;5046958;28;20155;-73
2021/11/30 05:24:15;;;;;;;16.10;5.25;;;;;;;7.64;86.79;100723.31;5048634;28;20098;-71
2021/11/30 05:26:41;;;;;;;20.67;5.28;;;;;;;7.67;86.98;100699.63;5048013;28;20055;-71
2021/11/30 05:29:07;;;;;;;16.70;6.03;;;;;;;7.66;86.91;100699.66;5042711;28;20053;-71
2021/11/30 05:31:32;;;;;;;18.10;4.88;;;;;;;7.66;87.08;100703.16;5045994;28;20044;-70
2021/11/30 05:33:59;;;;;;;15.88;5.35;;;;;;;7.66;87.14;100718.03;5047696;28;20033;-70
2021/11/30 05:36:25;;;;;;;15.13;5.05;;;;;;;7.69;86.99;100691.72;5044745;28;20471;-72
2021/11/30 05:38:50;;;;;;;13.27;5.22;;;;;;;7.66;86.96;100721.53;5046892;28;20127;-72
2021/11/30 05:41:16;;;;;;;13.13;5.65;;;;;;;7.69;87.01;100718.84;5047782;28;20124;-72
2021/11/30 05:43:41;;;;;;;15.43;5.13;;;;;;;7.72;86.92;100704.78;5046637;28;20028;-69
2021/11/30 05:46:06;;;;;;;20.05;5.57;;;;;;;7.73;87.07;100714.34;5046323;28;20030;-71
2021/11/30 05:48:33;;;;;;;21.95;5.60;;;;;;;7.71;87.37;100716.19;5047575;28;20075;-71
2021/11/30 05:50:59;;;;;;;23.08;6.10;;;;;;;7.71;87.15;100716.19;5044915;28;20071;-69
2021/11/30 05:53:24;;;;;;;15.05;4.60;;;;;;;7.74;87.17;100713.47;5045685;28;20073;-71
2021/11/30 05:55:55;;;;;;;16.83;5.93;;;;;;;7.73;87.05;100719.59;5047210;28;20033;-71
2021/11/30 05:58:21;;;;;;;23.15;6.10;;;;;;;7.72;87.22;100720.50;5044524;28;20029;-70
2021/11/30 06:00:48;;;;;;;23.48;6.32;;;;;;;7.73;86.95;100711.72;5043094;28;20028;-72
2021/11/30 06:03:28;;;;;;;18.20;5.38;;;;;;;7.77;86.91;100716.00;5046400;28;20045;-68
2021/11/30 06:05:53;;;;;;;26.48;6.32;;;;;;;7.80;86.71;100742.16;5045373;28;20321;-71
2021/11/30 06:08:18;;;;;;;29.48;5.95;;;;;;;7.82;86.46;100729.88;5045853;28;20490;-71
2021/11/30 06:10:44;;;;;;;16.83;6.07;;;;;;;7.82;86.02;100729.88;5047739;28;20479;-70
2021/11/30 06:13:09;;;;;;;19.42;5.50;;;;;;;7.84;86.12;100722.84;5045361;28;20039;-71
2021/11/30 06:15:34;;;;;;;25.40;6.05;;;;;;;7.83;85.96;100738.63;5045535;28;20371;-75
2021/11/30 06:18:00;;;;;;;21.00;6.57;;;;;;;7.88;85.75;100714.88;5042185;28;20380;-71
2021/11/30 06:20:26;;;;;;;24.77;5.55;;;;;;;7.90;85.64;100711.34;5044871;28;20021;-72
2021/11/30 06:22:51;;;;;;;26.63;5.18;;;;;;;7.93;85.49;100715.63;5045596;28;20364;-70
2021/11/30 06:25:17;;;;;;;17.75;4.50;;;;;;;7.96;84.78;100715.56;5046095;28;20440;-71
2021/11/30 06:27:42;;;;;;;26.83;4.82;;;;;;;7.96;85.06;100703.31;5045978;28;20515;-70
2021/11/30 06:30:08;;;;;;;18.55;4.32;;;;;;;7.98;84.91;100703.28;5043966;28;20021;-71
2021/11/30 06:32:33;;;;;;;25.95;4.78;;;;;;;8.03;84.66;100709.25;5045448;28;20065;-73
2021/11/30 06:34:59;;;;;;;12.88;4.50;;;;;;;8.03;84.79;100721.50;5043532;28;20044;-68
2021/11/30 06:37:24;;;;;;;17.23;4.65;;;;;;;8.07;84.25;100718.75;5041914;28;20464;-70
2021/11/30 06:39:52;;;;;;;28.42;6.20;;;;;;;8.09;84.16;100706.47;5033992;28;20077;-72
2021/11/30 06:42:17;;;;;;;17.52;4.82;;;;;;;8.13;84.30;100732.66;5035503;28;20107;-72
2021/11/30 06:44:43;;;;;;;17.17;4.05;;;;;;;8.16;84.02;100727.31;5028139;28;20033;-68
2021/11/30 06:47:08;;;;;;;19.63;4.43;;;;;;;8.18;84.04;100746.50;5045185;28;20036;-70
2021/11/30 06:49:33;;;;;;;22.33;4.45;;;;;;;8.21;84.13;100726.31;5044408;28;20124;-72
2021/11/30 06:51:59;;;;;;;16.75;3.75;;;;;;;8.26;83.98;100720.94;5044652;28;20097;-70
2021/11/30 06:54:24;;;;;;;18.70;4.28;;;;;;;8.27;84.16;100717.41;5043053;28;20499;-66
2021/11/30 06:56:50;;;;;;;17.73;3.42;;;;;;;8.24;84.03;100729.75;5045186;28;20133;-70
2021/11/30 06:59:15;;;;;;;19.67;5.38;;;;;;;8.26;84.04;100723.56;5040672;28;20029;-72
2021/11/30 07:01:43;;;;;;;9.93;3.40;;;;;;;8.28;84.37;100737.50;5034909;28;20013;-68
2021/11/30 07:04:09;;;;;;;26.08;3.95;;;;;;;8.31;83.90;100736.56;5035624;28;20049;-68
2021/11/30 07:11:52;;;;;;;18.55;3.50;;;;;;;8.39;83.72;100725.84;5035173;28;20485;-67
2021/11/30 07:14:17;;;;;;;19.38;3.63;;;;;;;8.40;83.72;100724.97;5034636;28;20036;-67
2021/11/30 07:16:42;;;;;;;19.85;3.90;;;;;;;8.41;84.07;100737.19;5034335;28;20045;-70
2021/11/30 07:19:08;;;;;;;19.05;3.80;;;;;;;8.40;84.03;100727.59;5036264;28;20306;-73
2021/11/30 07:21:33;;;;;;;14.40;3.00;;;;;;;8.41;84.41;100731.94;5043883;28;20063;-70
2021/11/30 07:24:02;;;;;;;14.52;2.80;;;;;;;8.42;84.23;100715.25;5043409;28;20031;-67
2021/11/30 07:26:28;;;;;;;17.83;2.95;;;;;;;8.43;84.08;100730.13;5036793;28;20458;-64
2021/11/30 07:28:53;;;;;;;17.33;3.47;;;;;;;8.44;84.48;100743.22;5033797;28;20036;-72
2021/11/30 07:31:19;;;;;;;17.65;3.28;;;;;;;8.47;84.18;100732.63;5038900;28;20148;-67
2021/11/30 07:33:47;;;;;;;16.55;3.03;;;;;;;8.46;84.57;100751.06;5043935;28;20545;-67
2021/11/30 07:36:14;;;;;;;19.08;2.72;;;;;;;8.46;84.38;100778.16;5043514;28;20068;-71
2021/11/30 07:38:41;;;;;;;17.40;3.40;;;;;;;8.47;84.87;100763.28;5043988;28;20025;-73
2021/11/30 07:41:07;;;;;;;11.82;2.70;;;;;;;8.48;84.61;100759.75;5043862;28;20025;-69
2021/11/30 07:43:33;;;;;;;10.10;2.67;;;;;;;8.46;85.20;100735.31;5042248;28;20025;-70
2021/11/30 07:45:59;;;;;;;13.25;3.38;;;;;;;8.48;84.97;100746.59;5042986;28;20078;-69
2021/11/30 07:48:26;;;;;;;20.30;3.22;;;;;;;8.47;84.74;100763.28;5029963;28;20021;-70
2021/11/30 07:50:52;;;;;;;19.02;2.97;;;;;;;8.47;84.83;100743.16;5033148;28;20106;-70
2021/11/30 07:53:18;;;;;;;12.70;3.17;;;;;;;8.50;85.18;100757.06;5034369;28;20055;-71
2021/11/30 07:55:44;;;;;;;14.07;3.22;;;;;;;8.47;85.49;100760.66;5031916;28;20057;-71
2021/11/30 07:58:09;;;;;;;14.55;2.80;;;;;;;8.47;85.37;100751.03;5035523;28;20116;-72
2021/11/30 08:00:35;;;;;;;19.23;3.25;;;;;;;8.44;85.55;100763.34;5036299;28;20029;-68
2021/11/30 08:03:00;;;;;;;11.48;2.97;;;;;;;8.42;85.70;100762.53;5035127;28;20474;-70
2021/11/30 08:05:26;;;;;;;20.38;3.40;;;;;;;8.42;85.76;100755.53;5034636;28;21125;-69
2021/11/30 08:07:51;;;;;;;17.05;3.40;;;;;;;8.44;85.57;100769.47;5033634;28;20124;-69
2021/11/30 08:10:18;;;;;;;8.18;3.10;;;;;;;8.44;85.24;100752.84;5035594;28;20052;-69
2021/11/30 08:12:45;;;;;;;11.55;2.85;;;;;;;8.46;85.19;100762.41;5043208;28;20090;-68
2021/11/30 08:15:12;;;;;;;9.10;3.05;;;;;;;8.48;85.18;100751.88;5034927;28;20571;-69
2021/11/30 08:17:38;;;;;;;17.02;3.78;;;;;;;8.55;84.93;100774.47;5034341;28;20487;-70
2021/11/30 08:20:05;;;;;;;13.98;3.85;;;;;;;8.55;85.08;100766.59;5036019;28;20021;-68
2021/11/30 08:22:30;;;;;;;16.65;3.80;;;;;;;8.55;84.93;100766.59;5033332;28;20045;-69
2021/11/30 08:24:55;;;;;;;15.40;3.05;;;;;;;8.60;84.86;100774.34;5034283;28;20026;-68
2021/11/30 08:27:21;;;;;;;13.82;2.90;;;;;;;8.64;84.55;100775.13;5035943;28;20564;-69
2021/11/30 08:29:49;;;;;;;16.50;3.88;;;;;;;8.62;84.95;100753.28;5037916;28;20078;-71
2021/11/30 08:32:15;;;;;;;15.35;2.78;;;;;;;8.63;84.54;100763.75;5033332;28;20026;-69
2021/11/30 08:34:41;;;;;;;16.30;3.03;;;;;;;8.62;85.06;100766.41;5036511;28;20055;-70
2021/11/30 08:37:08;;;;;;;13.43;3.50;;;;;;;8.63;84.71;100774.25;5037465;28;20331;-65
2021/11/30 08:39:34;;;;;;;17.67;3.30;;;;;;;8.66;84.57;100774.19;5033127;28;20025;-67
2021/11/30 08:42:00;;;;;;;16.63;3.65;;;;;;;8.67;84.24;100754.03;5032456;28;20044;-66
2021/11/30 08:44:27;;;;;;;11.13;3.05;;;;;;;8.68;84.20;100755.75;5033172;28;20420;-66
2021/11/30 08:46:52;;;;;;;18.75;3.42;;;;;;;8.69;83.96;100757.47;5032592;28;20045;-66
2021/11/30 08:49:18;;;;;;;12.95;3.20;;;;;;;8.71;84.04;100769.69;5031289;28;20025;-65
2021/11/30 08:51:43;;;;;;;10.48;2.88;;;;;;;8.72;84.12;100791.53;5033318;28;20026;-66
2021/11/30 08:54:08;;;;;;;10.93;3.08;;;;;;;8.77;83.61;100773.91;5033310;28;20136;-64
2021/11/30 08:56:34;;;;;;;11.48;2.78;;;;;;;8.76;83.81;100769.53;5034165;28;20479;-68
2021/11/30 08:58:59;;;;;;;19.95;3.25;;;;;;;8.78;83.62;100767.72;5022707;28;20314;-68
2021/11/30 09:01:25;;;;;;;14.27;3.00;;;;;;;8.79;83.40;100785.22;5040561;28;20207;-67
2021/11/30 09:03:50;;;;;;;19.30;3.35;;;;;;;8.82;83.61;100766.75;5046553;28;20150;-68
2021/11/30 09:06:15;;;;;;;13.98;2.92;;;;;;;8.87;83.20;100773.63;5044561;28;20128;-68
2021/11/30 09:08:41;;;;;;;17.42;2.72;;;;;;;8.86;83.29;100775.41;5047585;28;20379;-68
2021/11/30 09:11:06;;;;;;;21.63;2.70;;;;;;;8.89;83.04;100798.09;5045499;28;20353;-71
2021/11/30 09:13:31;;;;;;;13.88;2.53;;;;;;;8.94;82.39;100772.56;5047761;28;20044;-68
2021/11/30 09:15:57;;;;;;;12.38;2.33;;;;;;;8.98;82.21;100792.59;5046167;28;20029;-67
2021/11/30 09:18:23;;;;;;;20.25;2.65;;;;;;;8.97;82.43;100786.47;5027546;28;20030;-66
2021/11/30 09:20:48;;;;;;;13.02;2.63;;;;;;;8.97;82.65;100794.34;5026326;28;20116;-68
2021/11/30 09:23:14;;;;;;;12.88;2.45;;;;;;;8.96;82.56;100797.91;5042379;28;20025;-68
2021/11/30 09:25:40;;;;;;;13.75;2.85;;;;;;;8.97;82.96;100798.75;5047061;28;20037;-68
2021/11/30 09:28:05;;;;;;;9.05;2.35;;;;;;;8.95;82.71;100795.31;5036700;28;20396;-67
2021/11/30 09:30:34;;;;;;;9.55;2.42;;;;;;;8.95;83.09;100787.44;5026688;28;20507;-68
2021/11/30 09:32:59;;;;;;;10.82;2.42;;;;;;;8.98;82.62;100796.06;5030919;28;20039;-68
2021/11/30 09:35:25;;;;;;;17.20;3.45;;;;;;;9.03;82.64;100814.34;5046123;28;20483;-68
2021/11/30 09:37:52;;;;;;;11.43;2.75;;;;;;;9.10;81.82;100794.03;5014197;28;20044;-67
2021/11/30 09:40:21;;;;;;;12.73;2.60;;;;;;;9.17;81.42;100799.94;5016976;28;20089;-71
2021/11/30 09:42:48;;;;;;;15.80;2.88;;;;;;;9.18;81.48;100792.03;5021017;28;20021;-68
2021/11/30 09:45:14;;;;;;;12.38;3.10;;;;;;;9.24;81.47;100788.34;5022075;28;20057;-73
2021/11/30 09:47:40;;;;;;;14.13;3.50;;;;;;;9.28;81.55;100786.50;5007824;28;20532;-70
2021/11/30 09:50:08;;;;;;;21.05;2.72;;;;;;;9.37;81.37;100788.00;5023162;28;20029;-68
2021/11/30 09:52:33;;;;;;;9.68;2.50;;;;;;;9.45;81.38;100783.38;5013064;28;20037;-68
2021/11/30 09:54:58;;;;;;;15.52;2.80;;;;;;;9.49;80.96;100811.31;5022406;28;20029;-69
2021/11/30 09:57:24;;;;;;;7.30;2.50;;;;;;;9.50;81.04;100784.09;5022888;28;20177;-68
2021/11/30 09:59:49;;;;;;;17.45;2.65;;;;;;;9.50;81.36;100809.53;5021363;28;20080;-70
2021/11/30 10:02:15;;;;;;;13.38;2.95;;;;;;;9.48;81.49;100805.19;5022476;28;20464;-69
2021/11/30 10:04:41;;;;;;;13.15;2.80;;;;;;;9.50;81.39;100820.03;5021866;28;20501;-70
2021/11/30 10:07:06;;;;;;;13.98;3.20;;;;;;;9.48;81.18;100825.34;5021679;28;20029;-69
2021/11/30 10:09:32;;;;;;;12.38;2.67;;;;;;;9.45;81.42;100802.63;5021858;28;20032;-67
2021/11/30 10:12:00;;;;;;;15.90;3.90;;;;;;;9.47;81.82;100802.59;5041612;28;20104;-69
2021/11/30 10:14:34;;;;;;;9.98;2.33;;;;;;;9.45;82.09;100820.22;5044188;28;20061;-69
2021/11/30 10:17:18;;;;;;;14.77;2.95;;;;;;;9.44;81.91;100813.19;5045392;28;20473;-68
2021/11/30 10:19:52;;;;;;;12.85;2.70;;;;;;;9.48;81.82;100799.03;5043733;28;20115;-68
2021/11/30 10:22:33;;;;;;;14.43;2.50;;;;;;;9.47;81.68;100802.59;5035830;28;20023;-68
2021/11/30 10:25:26;;;;;;;13.82;2.78;;;;;;;9.44;82.18;100800.94;5037539;28;20028;-70
2021/11/30 10:28:06;;;;;;;19.15;2.20;;;;;;;9.48;81.72;100804.31;5034914;28;20120;-69
2021/11/30 10:30:34;;;;;;;13.27;2.75;;;;;;;9.50;81.11;100809.53;5037369;28;20476;-69
2021/11/30 10:33:06;;;;;;;21.92;3.28;;;;;;;9.51;81.31;100806.84;5033567;28;20021;-71
2021/11/30 10:35:32;;;;;;;14.30;2.45;;;;;;;9.49;81.66;100813.94;5034573;28;20174;-71
2021/11/30 10:37:59;;;;;;;11.32;2.20;;;;;;;9.52;81.09;100836.66;5034272;28;20352;-70
2021/11/30 10:40:26;;;;;;;9.98;2.53;;;;;;;9.50;81.47;100804.25;5035401;28;20063;-70
2021/11/30 10:42:56;;;;;;;15.82;2.15;;;;;;;9.46;81.75;100801.72;5035508;28;20051;-73
2021/11/30 10:45:27;;;;;;;16.50;2.30;;;;;;;9.44;82.20;100803.56;5034724;28;20486;-71
2021/11/30 10:47:52;;;;;;;10.95;2.88;;;;;;;9.42;82.62;100794.00;5035306;28;20021;-69
2021/11/30 10:50:25;;;;;;;13.18;2.75;;;;;;;9.35;82.69;100803.81;5034090;28;20074;-70
2021/11/30 10:52:52;;;;;;;16.77;3.00;;;;;;;9.35;82.72;100803.81;5044049;28;20423;-71
2021/11/30 10:55:18;;;;;;;9.65;2.42;;;;;;;9.39;82.54;100799.34;5044206;28;20143;-69
2021/11/30 10:57:46;;;;;;;14.27;3.70;;;;;;;9.41;82.38;100787.88;5032283;28;20021;-70
2021/11/30 11:00:23;;;;;;;13.00;2.88;;;;;;;9.42;82.52;100796.63;5040641;28;20032;-67
2021/11/30 11:03:00;;;;;;;18.23;3.45;;;;;;;9.35;83.10;100788.03;5044377;28;20041;-69
2021/11/30 11:05:32;;;;;;;10.65;2.60;;;;;;;9.30;84.04;100774.19;5038147;28;20392;-69
2021/11/30 11:08:10;;;;;;;18.15;4.18;;;;;;;9.25;84.48;100797.97;5031942;28;20033;-69
2021/11/30 11:10:39;;;;;;;6.57;2.63;;;;;;;9.22;84.54;100798.06;5037894;28;20021;-70
2021/11/30 11:13:30;;;;;;;11.67;2.77;;;;;;;9.18;84.13;100794.66;5034719;28;20033;-66
2021/11/30 11:16:04;;;;;;;13.32;2.70;;;;;;;9.19;84.13;100795.53;5035880;28;20025;-66
2021/11/30 11:18:41;;;;;;;10.80;3.03;;;;;;;9.21;84.08;100780.53;5031119;28;20078;-65
2021/11/30 11:21:29;;;;;;;13.80;2.88;;;;;;;9.24;83.46;100788.34;5032175;28;20029;-70
2021/11/30 11:24:06;;;;;;;15.23;2.70;;;;;;;9.30;83.39;100784.69;5035967;28;20025;-65
2021/11/30 11:26:34;;;;;;;13.75;2.83;;;;;;;9.33;82.86;100789.88;5039193;28;20045;-63
2021/11/30 11:29:03;;;;;;;14.95;2.88;;;;;;;9.33;83.28;100776.72;5036848;28;20071;-65
2021/11/30 11:31:29;;;;;;;10.90;3.03;;;;;;;9.37;82.72;100769.59;5035662;28;20386;-70
2021/11/30 11:33:56;;;;;;;8.43;1.98;;;;;;;9.44;82.82;100794.78;5031892;28;20096;-71
2021/11/30 11:36:22;;;;;;;12.48;2.78;;;;;;;9.45;82.55;100786.00;5033498;28;20124;-70
2021/11/30 11:38:48;;;;;;;10.35;2.90;;;;;;;9.44;83.14;100785.16;5031733;28;20104;-68